Time;durP1;ratioP1;P1;durP2;ratioP2;P2;SDS_P1;SDS_P2;PMS_P1;PMS_P2;Temp;Humidity;BMP_temperature;BMP_pressure;BME280_temperature;BME280_humidity;BME280_pressure;Samples;Min_cycle;Max_cycle;Signal;HPM_P1;HPM_P2
2022/12/31 00:00:56;;;;;;;0.00;0.00;;;;;;;11.70;100.00;100240.25;5012010;28;20037;-73
2022/12/31 00:03:21;;;;;;;0.08;0.08;;;;;;;11.77;100.00;100245.06;5015234;28;20029;-72
2022/12/31 00:05:46;;;;;;;0.10;0.10;;;;;;;11.65;100.00;100231.75;5017394;28;20160;-71
2022/12/31 00:08:12;;;;;;;0.10;0.10;;;;;;;11.75;100.00;100239.81;5016579;28;20116;-71
2022/12/31 00:10:40;;;;;;;0.10;0.10;;;;;;;11.73;100.00;100243.63;5013017;28;20025;-71
2022/12/31 00:13:07;;;;;;;0.00;0.00;;;;;;;11.69;100.00;100251.13;5014296;28;20029;-72
2022/12/31 00:15:33;;;;;;;0.10;0.10;;;;;;;11.59;100.00;100226.09;5004523;28;20049;-71
2022/12/31 00:17:58;;;;;;;0.00;0.00;;;;;;;11.50;100.00;100225.09;5014954;28;20021;-73
2022/12/31 00:20:23;;;;;;;0.00;0.00;;;;;;;11.63;100.00;100244.47;5013268;28;20033;-71
2022/12/31 00:22:48;;;;;;;0.00;0.00;;;;;;;11.54;100.00;100230.03;5014396;28;20040;-72
2022/12/31 00:25:14;;;;;;;0.00;0.00;;;;;;;11.73;100.00;100255.22;5010536;28;20037;-72
2022/12/31 00:27:39;;;;;;;0.00;0.00;;;;;;;11.94;100.00;100236.25;5007442;28;20065;-73
2022/12/31 00:30:05;;;;;;;0.10;0.10;;;;;;;11.75;100.00;100239.81;5011079;28;20144;-73
2022/12/31 00:32:30;;;;;;;0.10;0.10;;;;;;;11.75;100.00;100244.34;5008537;28;20044;-71
2022/12/31 00:34:56;;;;;;;0.00;0.00;;;;;;;11.89;100.00;100235.00;5022649;28;20037;-73
2022/12/31 00:37:21;;;;;;;0.00;0.00;;;;;;;11.59;100.00;100229.63;5019073;28;20034;-72
2022/12/31 00:39:46;;;;;;;0.10;0.10;;;;;;;11.66;100.00;100252.25;5013170;28;20041;-72
2022/12/31 00:42:12;;;;;;;0.00;0.00;;;;;;;11.82;100.00;100251.72;5007236;28;20511;-72
2022/12/31 00:44:37;;;;;;;0.00;0.00;;;;;;;11.64;100.00;100230.03;5014333;28;20141;-72
2022/12/31 00:47:02;;;;;;;0.00;0.00;;;;;;;11.73;100.00;100238.25;5014408;28;20108;-72
2022/12/31 00:49:27;;;;;;;0.00;0.00;;;;;;;11.77;100.00;100227.06;5014086;28;20047;-72
2022/12/31 00:51:53;;;;;;;0.00;0.00;;;;;;;11.96;100.00;100241.47;5012870;28;20631;-72
2022/12/31 00:54:18;;;;;;;0.00;0.00;;;;;;;11.72;100.00;100223.13;5012809;28;20033;-72
2022/12/31 00:56:43;;;;;;;0.00;0.00;;;;;;;11.84;100.00;100246.16;5012870;28;20450;-73
2022/12/31 00:59:09;;;;;;;0.00;0.00;;;;;;;11.77;100.00;100231.63;5015786;28;20116;-73
2022/12/31 01:01:36;;;;;;;0.00;0.00;;;;;;;11.85;100.00;100232.59;5016617;28;20460;-72
2022/12/31 01:04:22;;;;;;;0.00;0.00;;;;;;;11.81;100.00;100233.00;5005967;28;20498;-72
2022/12/31 01:06:47;;;;;;;0.00;0.00;;;;;;;11.76;100.00;100228.06;5015974;28;20116;-73
2022/12/31 01:09:15;;;;;;;0.00;0.00;;;;;;;11.76;100.00;100243.34;5011937;28;20140;-71
2022/12/31 01:11:40;;;;;;;0.00;0.00;;;;;;;11.78;100.00;100250.28;5012988;28;20029;-72
2022/12/31 01:14:09;;;;;;;0.03;0.03;;;;;;;11.80;100.00;100253.69;5011637;28;20045;-71
2022/12/31 01:16:43;;;;;;;0.00;0.00;;;;;;;11.92;100.00;100240.94;5011481;28;20075;-71
2022/12/31 01:19:11;;;;;;;0.10;0.10;;;;;;;11.89;100.00;100232.31;5012088;28;20036;-71
2022/12/31 01:21:38;;;;;;;0.00;0.00;;;;;;;11.90;100.00;100236.69;5016575;28;20560;-72
2022/12/31 01:24:04;;;;;;;0.00;0.00;;;;;;;11.79;100.00;100240.34;5015206;28;20045;-73
2022/12/31 01:26:30;;;;;;;0.10;0.10;;;;;;;11.88;100.00;100242.22;5014856;28;20698;-72
2022/12/31 01:28:55;;;;;;;0.00;0.00;;;;;;;11.89;100.00;100229.63;5000109;28;20033;-72
2022/12/31 01:31:21;;;;;;;0.00;0.00;;;;;;;11.76;100.00;100197.63;5000452;28;20381;-72
2022/12/31 01:33:47;;;;;;;0.10;0.10;;;;;;;11.86;100.00;100219.97;5016852;28;20389;-72
2022/12/31 01:36:24;;;;;;;0.00;0.00;;;;;;;11.90;100.00;100229.47;4995817;28;20124;-72
2022/12/31 01:38:49;;;;;;;0.00;0.00;;;;;;;11.90;100.00;100221.41;5016885;28;20047;-72
2022/12/31 01:41:18;;;;;;;0.10;0.10;;;;;;;11.94;100.00;100221.94;5014497;28;20037;-72
2022/12/31 01:43:55;;;;;;;0.00;0.00;;;;;;;11.97;100.00;100241.34;5031984;28;20454;-73
2022/12/31 01:46:39;;;;;;;0.00;0.00;;;;;;;11.54;100.00;100216.59;5016331;28;20061;-72
2022/12/31 01:49:23;;;;;;;0.00;0.00;;;;;;;11.52;100.00;100233.88;5029183;28;20384;-72
2022/12/31 01:52:03;;;;;;;0.10;0.10;;;;;;;11.44;100.00;100252.53;5012651;28;20037;-73
2022/12/31 01:54:30;;;;;;;0.10;0.10;;;;;;;11.25;100.00;100238.09;5018359;28;20362;-72
2022/12/31 01:56:56;;;;;;;0.00;0.00;;;;;;;11.51;100.00;100259.06;5017653;28;20044;-72
2022/12/31 01:59:24;;;;;;;0.00;0.00;;;;;;;11.19;100.00;100266.34;5001158;28;20029;-72
2022/12/31 02:01:52;;;;;;;0.00;0.00;;;;;;;11.08;100.00;100275.38;5006952;28;20037;-72
2022/12/31 02:04:20;;;;;;;0.00;0.00;;;;;;;10.98;100.00;100263.75;5024965;28;20067;-72
2022/12/31 02:06:50;;;;;;;0.00;0.00;;;;;;;10.84;100.00;100273.03;5027140;28;20068;-72
2022/12/31 02:09:16;;;;;;;0.10;0.10;;;;;;;10.96;100.00;100314.06;5018597;28;20021;-72
2022/12/31 02:11:41;;;;;;;0.00;0.00;;;;;;;10.99;100.00;100353.22;5016374;28;20033;-72
2022/12/31 02:14:11;;;;;;;0.10;0.10;;;;;;;11.05;100.00;100375.03;5021706;28;20632;-73
2022/12/31 02:16:48;;;;;;;0.10;0.10;;;;;;;10.95;100.00;100345.44;5020413;28;20546;-72
2022/12/31 02:19:38;;;;;;;0.00;0.00;;;;;;;10.96;100.00;100249.63;5022814;28;20132;-72
2022/12/31 02:22:45;;;;;;;0.00;0.00;;;;;;;10.89;100.00;100260.03;5011866;28;20096;-72
2022/12/31 02:25:39;;;;;;;0.10;0.10;;;;;;;10.83;100.00;100246.31;5012422;28;20128;-72
2022/12/31 02:28:22;;;;;;;0.00;0.00;;;;;;;10.78;100.00;100236.81;5018488;28;20036;-72
2022/12/31 02:30:50;;;;;;;0.00;0.00;;;;;;;10.72;100.00;100268.72;5017415;28;20526;-72
2022/12/31 02:33:23;;;;;;;0.00;0.00;;;;;;;10.88;100.00;100290.56;5022683;28;20396;-72
2022/12/31 02:35:52;;;;;;;0.00;0.00;;;;;;;10.80;100.00;100277.81;5012149;28;20056;-72
2022/12/31 02:38:23;;;;;;;0.00;0.00;;;;;;;10.81;100.00;100289.41;5012081;28;20113;-72
2022/12/31 02:40:49;;;;;;;0.00;0.00;;;;;;;10.58;100.00;100267.25;5011554;28;20064;-72
2022/12/31 02:43:14;;;;;;;0.10;0.10;;;;;;;10.59;100.00;100260.91;5013059;28;20155;-72
2022/12/31 02:45:43;;;;;;;0.00;0.00;;;;;;;10.73;100.00;100268.59;5012744;28;20558;-72
2022/12/31 02:48:14;;;;;;;0.00;0.00;;;;;;;10.74;100.00;100286.41;5018440;28;20026;-72
2022/12/31 02:50:54;;;;;;;0.00;0.00;;;;;;;10.76;100.00;100278.22;5015149;28;20036;-72
2022/12/31 02:53:48;;;;;;;0.10;0.10;;;;;;;10.65;100.00;100287.22;5016139;28;20029;-72
2022/12/31 02:56:26;;;;;;;;;;;;;;;10.54;100.00;100290.84;5016893;28;20040;-72
2022/12/31 03:02:14;;;;;;;0.00;0.00;;;;;;;10.45;100.00;100278.19;5013251;28;20104;-72
2022/12/31 03:04:47;;;;;;;0.00;0.00;;;;;;;10.49;100.00;100267.06;5012492;28;20031;-72
2022/12/31 03:07:16;;;;;;;0.10;0.10;;;;;;;10.72;100.00;100282.16;5011319;28;20029;-72
2022/12/31 03:09:42;;;;;;;0.10;0.10;;;;;;;10.72;100.00;100291.06;5015635;28;20025;-72
2022/12/31 03:14:53;;;;;;;0.10;0.10;;;;;;;10.65;100.00;100284.53;5010811;28;20086;-72
2022/12/31 03:17:18;;;;;;;0.00;0.00;;;;;;;10.73;100.00;100263.22;5012976;28;20021;-72
2022/12/31 03:22:28;;;;;;;0.00;0.00;;;;;;;10.63;100.00;100259.66;5011341;28;20056;-72
2022/12/31 03:27:47;;;;;;;0.10;0.10;;;;;;;10.77;100.00;100267.34;5010702;28;20440;-72
2022/12/31 03:30:14;;;;;;;0.10;0.10;;;;;;;10.71;100.00;100262.53;5013751;28;20033;-73
2022/12/31 03:32:41;;;;;;;0.00;0.00;;;;;;;10.74;100.00;100272.97;5013289;28;20029;-73
2022/12/31 03:35:07;;;;;;;0.10;0.10;;;;;;;10.74;100.00;100270.28;5011438;28;20499;-73
2022/12/31 03:37:32;;;;;;;0.00;0.00;;;;;;;10.70;100.00;100260.81;5012364;28;20033;-73
2022/12/31 03:39:58;;;;;;;0.03;0.03;;;;;;;10.78;100.00;100260.16;5015053;28;20033;-73
2022/12/31 03:42:23;;;;;;;0.00;0.00;;;;;;;10.66;100.00;100245.97;5009120;28;20041;-73
2022/12/31 03:44:48;;;;;;;0.00;0.00;;;;;;;10.68;100.00;100257.41;5011024;28;20033;-73
2022/12/31 03:47:14;;;;;;;0.00;0.00;;;;;;;10.64;100.00;100239.88;5011842;28;20036;-73
2022/12/31 03:49:39;;;;;;;0.00;0.00;;;;;;;10.77;100.00;100245.84;5009640;28;20026;-73
2022/12/31 03:52:05;;;;;;;0.00;0.00;;;;;;;10.71;100.00;100234.81;4995176;28;20037;-73
2022/12/31 03:54:31;;;;;;;0.00;0.00;;;;;;;10.78;100.00;100255.59;5013166;28;20116;-73
2022/12/31 03:56:56;;;;;;;0.00;0.00;;;;;;;10.77;100.00;100251.22;5008627;28;20034;-73
2022/12/31 03:59:22;;;;;;;0.08;0.08;;;;;;;10.81;100.00;100265.25;5015028;28;20096;-72
2022/12/31 04:01:47;;;;;;;0.03;0.03;;;;;;;10.70;100.00;100252.78;5020405;28;20468;-73
2022/12/31 04:04:12;;;;;;;0.05;0.05;;;;;;;10.82;100.00;100255.34;5017072;28;20069;-73
2022/12/31 04:06:37;;;;;;;0.00;0.00;;;;;;;10.79;100.00;100260.00;5020709;28;20056;-72
2022/12/31 04:09:03;;;;;;;0.00;0.00;;;;;;;10.82;100.00;100256.22;5021018;28;20108;-72
2022/12/31 04:11:28;;;;;;;0.10;0.10;;;;;;;10.82;100.00;100258.91;5013389;28;20033;-72
2022/12/31 04:13:53;;;;;;;0.00;0.00;;;;;;;10.71;100.00;100250.91;5014859;28;20144;-73
2022/12/31 04:16:19;;;;;;;0.00;0.00;;;;;;;10.75;100.00;100274.66;5013930;28;20045;-72
2022/12/31 04:18:44;;;;;;;0.08;0.08;;;;;;;10.77;100.00;100277.25;5020819;28;20429;-72
2022/12/31 04:21:09;;;;;;;0.00;0.00;;;;;;;10.79;100.00;100264.53;5016585;28;20474;-72
2022/12/31 04:23:35;;;;;;;0.00;0.00;;;;;;;10.73;100.00;100279.31;4995913;28;20033;-72
2022/12/31 04:26:00;;;;;;;0.10;0.10;;;;;;;10.63;100.00;100263.16;4998014;28;20076;-72
2022/12/31 04:28:25;;;;;;;0.00;0.00;;;;;;;10.70;100.00;100258.13;5018130;28;20048;-72
2022/12/31 04:30:51;;;;;;;0.10;0.10;;;;;;;10.60;100.00;100252.69;5007127;28;20057;-73
2022/12/31 04:33:16;;;;;;;0.00;0.00;;;;;;;10.75;100.00;100268.47;5008214;28;20139;-73
2022/12/31 04:35:42;;;;;;;0.00;0.00;;;;;;;10.69;100.00;100258.25;5006706;28;20029;-72
2022/12/31 04:38:08;;;;;;;0.00;0.00;;;;;;;10.77;100.00;100258.44;5008331;28;21987;-72
2022/12/31 04:40:33;;;;;;;0.00;0.00;;;;;;;10.72;100.00;100239.19;4994804;28;20052;-73
2022/12/31 04:42:58;;;;;;;0.00;0.00;;;;;;;10.70;100.00;100227.75;5006544;28;20025;-73
2022/12/31 04:45:24;;;;;;;0.10;0.10;;;;;;;10.76;100.00;100230.72;4992315;28;20365;-73
2022/12/31 04:47:49;;;;;;;0.00;0.00;;;;;;;10.76;100.00;100224.53;5009484;28;20116;-73
2022/12/31 04:50:14;;;;;;;0.00;0.00;;;;;;;10.84;100.00;100238.13;5008738;28;20033;-72
2022/12/31 04:52:40;;;;;;;0.00;0.00;;;;;;;10.99;100.00;100233.19;5009899;28;20036;-72
2022/12/31 04:55:05;;;;;;;0.00;0.00;;;;;;;10.86;100.00;100211.94;5011677;28;20025;-73
2022/12/31 04:57:31;;;;;;;0.00;0.00;;;;;;;10.93;100.00;100242.66;5023330;28;20041;-73
2022/12/31 04:59:56;;;;;;;0.00;0.00;;;;;;;10.92;100.00;100254.38;5009346;28;20404;-73
2022/12/31 05:02:21;;;;;;;0.00;0.00;;;;;;;10.82;100.00;100236.53;5006149;28;20200;-72
2022/12/31 05:04:47;;;;;;;0.00;0.00;;;;;;;10.94;100.00;100249.72;5009575;28;20116;-72
2022/12/31 05:07:12;;;;;;;0.10;0.10;;;;;;;10.95;100.00;100262.19;5009859;28;20098;-73
2022/12/31 05:09:37;;;;;;;0.00;0.00;;;;;;;10.87;100.00;100245.88;5011768;28;20032;-73
2022/12/31 05:12:03;;;;;;;0.00;0.00;;;;;;;10.92;100.00;100257.06;5007813;28;20041;-73
2022/12/31 05:14:28;;;;;;;0.00;0.00;;;;;;;10.85;100.00;100265.81;5010582;28;20518;-72
2022/12/31 05:16:53;;;;;;;0.00;0.00;;;;;;;10.94;100.00;100265.84;5010161;28;20034;-72
2022/12/31 05:19:19;;;;;;;0.00;0.00;;;;;;;10.77;100.00;100261.13;5013764;28;20065;-72
2022/12/31 05:22:27;;;;;;;0.00;0.00;;;;;;;10.86;100.00;100262.16;5019670;28;20134;-73
2022/12/31 05:24:29;;;;;;;0.03;0.03;;;;;;;10.94;100.00;100294.56;5016612;28;20037;-73
2022/12/31 05:26:55;;;;;;;0.00;0.00;;;;;;;10.78;100.00;100271.72;4997687;28;20037;-73
2022/12/31 05:29:20;;;;;;;0.00;0.00;;;;;;;10.81;100.00;100281.34;5015018;28;20492;-73
2022/12/31 05:31:45;;;;;;;0.10;0.10;;;;;;;10.84;100.00;100293.66;5020364;28;20053;-73
2022/12/31 05:34:10;;;;;;;0.00;0.00;;;;;;;10.75;100.00;100280.03;5022899;28;20060;-72
2022/12/31 05:36:36;;;;;;;0.10;0.10;;;;;;;10.87;100.00;100294.22;5008033;28;20357;-73
2022/12/31 05:39:01;;;;;;;0.00;0.00;;;;;;;10.89;100.00;100292.25;5014730;28;20468;-72
2022/12/31 05:41:26;;;;;;;0.00;0.00;;;;;;;10.96;100.00;100289.91;5021117;28;20033;-72
2022/12/31 05:43:52;;;;;;;0.00;0.00;;;;;;;10.86;100.00;100283.63;5006728;28;20088;-72
2022/12/31 05:46:17;;;;;;;0.00;0.00;;;;;;;10.79;100.00;100278.78;5014400;28;20079;-72
2022/12/31 05:48:42;;;;;;;0.10;0.10;;;;;;;11.00;100.00;100285.94;5012100;28;20030;-72
2022/12/31 05:51:07;;;;;;;0.00;0.00;;;;;;;10.92;100.00;100269.66;5011888;28;20021;-73
2022/12/31 05:53:33;;;;;;;0.10;0.10;;;;;;;10.93;100.00;100282.94;5013822;28;20532;-73
2022/12/31 05:55:58;;;;;;;0.10;0.10;;;;;;;10.98;100.00;100293.31;5013192;28;20576;-72
2022/12/31 05:58:23;;;;;;;0.10;0.10;;;;;;;10.97;100.00;100296.97;5015938;28;20048;-73
2022/12/31 06:00:50;;;;;;;0.00;0.00;;;;;;;10.92;100.00;100292.00;5022399;28;20480;-73
2022/12/31 06:03:16;;;;;;;0.00;0.00;;;;;;;10.89;100.00;100286.06;5020002;28;20040;-72
2022/12/31 06:05:41;;;;;;;0.00;0.00;;;;;;;10.99;100.00;100303.03;5021880;28;20029;-73
2022/12/31 06:08:07;;;;;;;0.00;0.00;;;;;;;11.17;100.00;100338.16;5021793;28;20717;-72
2022/12/31 06:10:32;;;;;;;0.00;0.00;;;;;;;11.03;100.00;100312.53;5015376;28;20521;-73
2022/12/31 06:12:57;;;;;;;0.00;0.00;;;;;;;11.00;100.00;100302.03;5007737;28;20052;-72
2022/12/31 06:15:23;;;;;;;0.03;0.03;;;;;;;11.07;100.00;100308.59;5011466;28;20025;-72
2022/12/31 06:17:48;;;;;;;0.10;0.10;;;;;;;11.27;100.00;100316.72;5011982;28;20030;-72
2022/12/31 06:20:14;;;;;;;0.00;0.00;;;;;;;11.35;100.00;100316.03;5011134;28;20195;-71
2022/12/31 06:22:40;;;;;;;0.00;0.00;;;;;;;11.32;100.00;100292.97;5012225;28;20056;-70
2022/12/31 06:25:05;;;;;;;0.08;0.08;;;;;;;11.70;100.00;100304.78;5012574;28;20349;-72
2022/12/31 06:27:31;;;;;;;0.00;0.00;;;;;;;11.75;100.00;100287.38;5007689;28;20090;-71
2022/12/31 06:29:56;;;;;;;0.00;0.00;;;;;;;11.85;100.00;100304.34;5010281;28;20301;-72
2022/12/31 06:32:21;;;;;;;0.10;0.10;;;;;;;11.85;100.00;100296.28;5011834;28;20025;-72
2022/12/31 06:34:47;;;;;;;0.10;0.10;;;;;;;11.98;100.00;100287.94;5011452;28;20501;-72
2022/12/31 06:37:12;;;;;;;0.10;0.10;;;;;;;11.97;100.00;100278.16;4996752;28;20033;-71
2022/12/31 06:39:37;;;;;;;0.10;0.10;;;;;;;12.14;100.00;100290.94;5009124;28;20033;-71
2022/12/31 06:42:03;;;;;;;0.00;0.00;;;;;;;12.24;100.00;100280.16;4993275;28;20034;-72
2022/12/31 06:44:28;;;;;;;0.00;0.00;;;;;;;12.24;100.00;100279.28;5011029;28;20040;-72
2022/12/31 06:46:54;;;;;;;0.10;0.10;;;;;;;12.34;100.00;100284.66;5011979;28;20029;-72
2022/12/31 06:49:19;;;;;;;0.10;0.10;;;;;;;12.44;100.00;100286.38;5012751;28;20392;-72
2022/12/31 06:51:46;;;;;;;0.10;0.10;;;;;;;12.59;100.00;100310.13;5014024;28;20033;-71
2022/12/31 06:54:12;;;;;;;0.00;0.00;;;;;;;12.57;100.00;100293.25;5011945;28;20025;-71
2022/12/31 06:56:38;;;;;;;0.00;0.00;;;;;;;12.42;100.00;100282.97;4996782;28;20029;-71
2022/12/31 06:59:03;;;;;;;0.10;0.10;;;;;;;12.63;100.00;100299.91;5010210;28;20495;-70
2022/12/31 07:01:43;;;;;;;0.10;0.10;;;;;;;12.77;100.00;100295.88;5014296;28;20483;-70
2022/12/31 07:04:29;;;;;;;0.03;0.03;;;;;;;12.81;100.00;100281.13;5027756;28;20050;-71
2022/12/31 07:07:07;;;;;;;0.00;0.00;;;;;;;13.03;100.00;100269.97;5015210;28;20030;-71
2022/12/31 07:09:41;;;;;;;0.10;0.10;;;;;;;13.37;100.00;100282.00;5018220;28;20132;-69
2022/12/31 07:12:26;;;;;;;0.10;0.10;;;;;;;13.26;100.00;100261.47;4994596;28;20128;-71
2022/12/31 07:14:58;;;;;;;0.10;0.10;;;;;;;13.60;100.00;100279.72;5010563;28;20120;-73
2022/12/31 07:17:49;;;;;;;0.00;0.00;;;;;;;13.67;100.00;100279.13;5013948;28;20038;-71
2022/12/31 07:20:15;;;;;;;0.10;0.10;;;;;;;13.73;100.00;100271.25;5014257;28;20030;-70
2022/12/31 07:22:41;;;;;;;0.05;0.05;;;;;;;13.78;100.00;100284.28;5019803;28;20026;-72
2022/12/31 07:25:11;;;;;;;0.00;0.00;;;;;;;13.72;100.00;100301.94;5021169;28;20159;-71
2022/12/31 07:28:02;;;;;;;0.10;0.10;;;;;;;13.68;100.00;100327.50;5017571;28;20543;-70
2022/12/31 07:30:38;;;;;;;0.05;0.05;;;;;;;13.67;100.00;100306.09;5021055;28;20029;-74
2022/12/31 07:33:34;;;;;;;0.00;0.00;;;;;;;13.42;100.00;100303.97;5016562;28;20036;-70
2022/12/31 07:36:09;;;;;;;0.00;0.00;;;;;;;13.41;100.00;100309.53;5008712;28;20180;-74
2022/12/31 07:38:55;;;;;;;0.00;0.00;;;;;;;13.48;100.00;100324.94;5009464;28;20034;-75
2022/12/31 07:41:27;;;;;;;0.00;0.00;;;;;;;13.39;100.00;100309.63;5008192;28;20195;-71
2022/12/31 07:43:59;;;;;;;0.08;0.08;;;;;;;13.30;100.00;100313.25;5010730;28;20040;-70
2022/12/31 07:46:32;;;;;;;0.05;0.05;;;;;;;13.33;100.00;100321.03;5013182;28;20075;-73
2022/12/31 07:48:58;;;;;;;0.00;0.00;;;;;;;13.34;100.00;100312.78;5006996;28;20105;-73
2022/12/31 07:51:23;;;;;;;0.00;0.00;;;;;;;13.32;100.00;100325.56;5009520;28;20068;-72
2022/12/31 07:53:49;;;;;;;0.00;0.00;;;;;;;13.44;100.00;100303.84;5010108;28;20087;-73
2022/12/31 07:56:14;;;;;;;0.08;0.08;;;;;;;13.45;100.00;100311.75;5010050;28;20033;-71
2022/12/31 07:58:39;;;;;;;0.10;0.10;;;;;;;13.74;100.00;100307.19;5008102;28;20115;-70
2022/12/31 08:01:11;;;;;;;0.10;0.10;;;;;;;13.94;100.00;100292.53;5011853;28;20539;-70
2022/12/31 08:03:47;;;;;;;0.00;0.00;;;;;;;13.92;100.00;100305.31;5020474;28;20112;-71
2022/12/31 08:06:16;;;;;;;0.00;0.00;;;;;;;13.83;100.00;100276.56;5022902;28;20572;-77
2022/12/31 08:08:55;;;;;;;0.10;0.10;;;;;;;13.98;100.00;100281.44;5024584;28;20033;-71
2022/12/31 08:11:37;;;;;;;0.10;0.10;;;;;;;14.09;100.00;100330.63;5013920;28;20750;-71
2022/12/31 08:14:02;;;;;;;0.03;0.03;;;;;;;13.93;100.00;100298.06;5019936;28;20148;-72
2022/12/31 08:16:28;;;;;;;0.00;0.00;;;;;;;13.71;100.00;100302.09;5017067;28;20043;-70
2022/12/31 08:18:54;;;;;;;0.00;0.00;;;;;;;13.91;100.00;100306.34;5017655;28;20152;-71
2022/12/31 08:21:34;;;;;;;0.00;0.00;;;;;;;13.74;100.00;100302.63;5019344;28;20391;-73
2022/12/31 08:24:08;;;;;;;0.00;0.00;;;;;;;13.91;100.00;100321.66;5013775;28;20025;-72
2022/12/31 08:26:36;;;;;;;0.00;0.00;;;;;;;13.99;100.00;100293.91;5016365;28;20041;-75
2022/12/31 08:29:23;;;;;;;0.00;0.00;;;;;;;13.68;100.00;100313.19;5008740;28;20060;-72
2022/12/31 08:32:01;;;;;;;0.00;0.00;;;;;;;13.92;100.00;100335.00;5002353;28;20084;-72
2022/12/31 08:34:41;;;;;;;0.00;0.00;;;;;;;14.10;100.00;100320.66;5004534;28;20357;-73
2022/12/31 08:37:13;;;;;;;0.00;0.00;;;;;;;13.94;100.00;100367.22;5004569;28;20495;-73
2022/12/31 08:39:52;;;;;;;0.00;0.00;;;;;;;14.00;100.00;100399.00;4989666;28;20041;-71
2022/12/31 08:42:29;;;;;;;0.00;0.00;;;;;;;14.36;100.00;100425.19;5003203;28;20515;-73
2022/12/31 08:45:28;;;;;;;0.00;0.00;;;;;;;14.22;100.00;100416.63;5010568;28;20033;-75
2022/12/31 08:48:00;;;;;;;0.00;0.00;;;;;;;14.22;100.00;100431.97;4982824;28;20034;-74
2022/12/31 08:50:26;;;;;;;0.00;0.00;;;;;;;14.16;100.00;100405.59;5007932;28;20021;-76
2022/12/31 08:52:52;;;;;;;0.10;0.10;;;;;;;14.15;100.00;100433.59;5006916;28;20105;-75
2022/12/31 08:55:18;;;;;;;0.00;0.00;;;;;;;14.23;100.00;100426.44;5008758;28;21323;-73
2022/12/31 08:58:09;;;;;;;0.00;0.00;;;;;;;14.43;100.00;100455.97;5008062;28;20041;-73
2022/12/31 09:00:35;;;;;;;0.00;0.00;;;;;;;14.44;100.00;100462.22;5020112;28;20044;-76
2022/12/31 09:03:04;;;;;;;0.10;0.10;;;;;;;14.51;100.00;100460.59;5005493;28;20057;-77
2022/12/31 09:05:38;;;;;;;0.00;0.00;;;;;;;14.30;100.00;100461.75;5007009;28;20312;-74
2022/12/31 09:08:12;;;;;;;;;;;;;;;14.28;100.00;100498.03;5007194;28;20025;-77
2022/12/31 09:10:43;;;;;;;0.00;0.00;;;;;;;14.16;100.00;100495.53;5007459;28;20336;-74
2022/12/31 09:13:14;;;;;;;0.10;0.10;;;;;;;14.12;100.00;100499.53;5006053;28;20058;-72
2022/12/31 09:15:47;;;;;;;0.00;0.00;;;;;;;14.09;100.00;100483.63;5007828;28;20441;-72
2022/12/31 09:18:13;;;;;;;0.00;0.00;;;;;;;14.06;100.00;100506.38;5013152;28;20034;-72
2022/12/31 09:20:39;;;;;;;0.10;0.10;;;;;;;14.07;100.00;100520.72;5009651;28;20076;-73
2022/12/31 09:23:05;;;;;;;0.00;0.00;;;;;;;14.28;100.00;100516.94;5008783;28;20135;-72
2022/12/31 09:25:31;;;;;;;0.00;0.00;;;;;;;14.41;100.00;100509.28;5010889;28;20056;-74
2022/12/31 09:28:06;;;;;;;0.00;0.00;;;;;;;14.26;100.00;100490.06;5009245;28;20709;-74
2022/12/31 09:30:51;;;;;;;0.10;0.10;;;;;;;14.21;100.00;100513.97;5015970;28;20032;-73
2022/12/31 09:33:25;;;;;;;0.00;0.00;;;;;;;14.29;100.00;100518.63;5010263;28;20029;-72
2022/12/31 09:35:54;;;;;;;0.10;0.10;;;;;;;14.37;100.00;100522.25;5014994;28;20487;-76
2022/12/31 09:38:27;;;;;;;0.00;0.00;;;;;;;14.39;100.00;100531.06;5014922;28;20606;-75
2022/12/31 09:41:04;;;;;;;0.00;0.00;;;;;;;14.38;100.00;100526.66;5008629;28;20045;-75
2022/12/31 09:44:24;;;;;;;0.00;0.00;;;;;;;14.52;100.00;100538.78;5007859;28;20372;-76
2022/12/31 09:47:11;;;;;;;0.00;0.00;;;;;;;14.52;100.00;100551.44;4991912;28;20060;-77
2022/12/31 09:50:14;;;;;;;0.00;0.00;;;;;;;14.22;100.00;100548.06;5009235;28;20022;-76
2022/12/31 09:53:12;;;;;;;0.00;0.00;;;;;;;14.03;100.00;100552.56;5004151;28;20041;-74
2022/12/31 09:56:00;;;;;;;0.00;0.00;;;;;;;14.00;100.00;100557.44;5008686;28;20032;-77
2022/12/31 09:59:00;;;;;;;0.00;0.00;;;;;;;14.02;100.00;100555.44;5007491;28;20040;-74
2022/12/31 10:01:49;;;;;;;0.00;0.00;;;;;;;14.10;100.00;100561.78;5011993;28;20108;-78
2022/12/31 10:04:33;;;;;;;0.00;0.00;;;;;;;14.00;100.00;100555.56;5015126;28;20095;-74
2022/12/31 10:07:07;;;;;;;0.00;0.00;;;;;;;14.00;100.00;100552.84;5020394;28;20373;-73
2022/12/31 10:09:36;;;;;;;0.08;0.08;;;;;;;14.01;100.00;100559.97;5020313;28;20051;-72
2022/12/31 10:12:19;;;;;;;0.00;0.00;;;;;;;14.00;100.00;100563.66;5022802;28;20025;-73
2022/12/31 10:14:47;;;;;;;0.00;0.00;;;;;;;14.03;100.00;100563.38;5021539;28;20037;-74
2022/12/31 10:17:26;;;;;;;0.00;0.00;;;;;;;14.12;100.00;100567.00;5019753;28;20143;-73
2022/12/31 10:20:29;;;;;;;0.00;0.00;;;;;;;13.97;100.00;100549.63;5021046;28;20041;-73
2022/12/31 10:23:32;;;;;;;0.00;0.00;;;;;;;14.20;100.00;100583.31;5019813;28;20040;-73
2022/12/31 10:26:35;;;;;;;0.00;0.00;;;;;;;14.17;100.00;100567.41;5016668;28;20025;-75
2022/12/31 10:29:31;;;;;;;0.00;0.00;;;;;;;13.99;100.00;100559.25;5021160;28;20033;-75
2022/12/31 10:32:16;;;;;;;0.00;0.00;;;;;;;13.98;100.00;100551.31;5011595;28;20025;-76
2022/12/31 10:34:57;;;;;;;0.10;0.10;;;;;;;13.94;100.00;100556.16;5022851;28;20029;-75
2022/12/31 10:37:48;;;;;;;0.00;0.00;;;;;;;13.78;100.00;100545.97;5024219;28;20495;-73
2022/12/31 10:40:31;;;;;;;0.00;0.00;;;;;;;13.70;100.00;100549.41;5009447;28;20527;-75
2022/12/31 10:43:34;;;;;;;0.10;0.10;;;;;;;13.86;100.00;100532.59;5027922;28;20025;-76
2022/12/31 10:46:21;;;;;;;0.10;0.10;;;;;;;13.83;100.00;100538.31;5016754;28;20040;-74
2022/12/31 10:48:58;;;;;;;0.10;0.10;;;;;;;13.89;100.00;100515.28;5012982;28;20682;-75
2022/12/31 10:51:28;;;;;;;0.10;0.10;;;;;;;14.19;100.00;100549.22;5011383;28;20092;-74
2022/12/31 10:54:15;;;;;;;0.10;0.10;;;;;;;14.36;100.00;100530.50;5013811;28;20318;-75
2022/12/31 10:56:50;;;;;;;0.00;0.00;;;;;;;14.27;100.00;100539.53;5015155;28;20622;-71
2022/12/31 10:59:35;;;;;;;0.10;0.10;;;;;;;14.55;100.00;100559.25;5012763;28;20075;-72
2022/12/31 11:02:28;;;;;;;0.10;0.10;;;;;;;14.38;100.00;100556.38;5017573;28;21899;-71
2022/12/31 11:05:07;;;;;;;0.10;0.10;;;;;;;14.41;100.00;100557.91;5012387;28;20029;-72
2022/12/31 11:08:07;;;;;;;0.10;0.10;;;;;;;14.50;100.00;100550.75;5016158;28;20036;-74
2022/12/31 11:10:38;;;;;;;0.00;0.00;;;;;;;14.46;100.00;100519.63;5019084;28;20060;-72
2022/12/31 11:13:23;;;;;;;0.00;0.00;;;;;;;14.50;100.00;100539.94;5018827;28;20412;-73
2022/12/31 11:16:17;;;;;;;0.10;0.10;;;;;;;14.63;100.00;100539.56;5014126;28;20053;-72
2022/12/31 11:18:52;;;;;;;0.10;0.10;;;;;;;14.83;100.00;100559.22;5017754;28;20021;-75
2022/12/31 11:21:31;;;;;;;0.00;0.00;;;;;;;14.80;100.00;100551.41;5017830;28;20042;-75
2022/12/31 11:24:16;;;;;;;0.10;0.10;;;;;;;14.87;100.00;100549.78;5037612;28;20025;-73
2022/12/31 11:27:09;;;;;;;0.00;0.00;;;;;;;15.15;100.00;100568.63;5015278;28;20027;-73
2022/12/31 11:30:00;;;;;;;0.00;0.00;;;;;;;15.08;100.00;100538.66;5030018;28;20044;-74
2022/12/31 11:32:35;;;;;;;0.00;0.00;;;;;;;15.03;100.00;100577.97;5030323;28;20033;-76
2022/12/31 11:35:06;;;;;;;0.10;0.10;;;;;;;15.17;100.00;100593.66;5009789;28;20026;-73
2022/12/31 11:37:39;;;;;;;0.00;0.00;;;;;;;15.10;100.00;100557.44;5012796;28;20040;-71
2022/12/31 11:40:30;;;;;;;0.00;0.00;;;;;;;15.11;100.00;100548.31;5014954;28;20087;-69
2022/12/31 11:43:13;;;;;;;0.08;0.08;;;;;;;15.10;100.00;100571.78;5010427;28;20036;-71
2022/12/31 11:45:58;;;;;;;0.10;0.10;;;;;;;15.12;100.00;100560.81;5026617;28;20472;-71
2022/12/31 11:48:41;;;;;;;0.10;0.10;;;;;;;15.20;100.00;100551.91;5015170;28;20045;-71
2022/12/31 11:51:37;;;;;;;0.10;0.10;;;;;;;15.24;100.00;100570.38;5013211;28;20029;-71